createdAt,value
2017-01-28T18:07:45.264Z,1010.17
2017-01-28T18:08:25.830Z,1010.2
2017-01-28T18:09:06.374Z,1010.23
2017-01-28T18:09:46.905Z,1010.17
2017-01-28T18:10:27.415Z,1010.18
2017-01-28T18:11:07.935Z,1010.22
2017-01-28T18:11:48.453Z,1010.2
2017-01-28T18:12:28.989Z,1010.23
2017-01-28T18:13:09.551Z,1010.23
2017-01-28T18:13:50.080Z,1010.2
2017-01-28T18:14:30.604Z,1010.25
2017-01-28T18:15:11.134Z,1010.21
2017-01-28T18:15:51.668Z,1010.29
2017-01-28T18:16:32.203Z,1010.22
2017-01-28T18:17:12.725Z,1010.3
2017-01-28T18:17:53.246Z,1010.28
2017-01-28T18:18:33.759Z,1010.25
2017-01-28T18:19:14.273Z,1010.26
2017-01-28T18:19:54.794Z,1010.32
2017-01-28T18:20:35.321Z,1010.27
2017-01-28T18:21:15.891Z,1010.29
2017-01-28T18:21:56.410Z,1010.32
2017-01-28T18:22:36.924Z,1010.33
2017-01-28T18:23:17.447Z,1010.36
2017-01-28T18:23:57.981Z,1010.33
2017-01-28T18:24:38.494Z,1010.37
2017-01-28T18:25:19.019Z,1010.38
2017-01-28T18:25:59.544Z,1010.32
2017-01-28T18:26:40.083Z,1010.34
2017-01-28T18:27:20.630Z,1010.33
2017-01-28T18:28:01.186Z,1010.35
2017-01-28T18:28:41.715Z,1010.33
2017-01-28T18:29:22.287Z,1010.32
2017-01-28T18:30:02.863Z,1010.3
2017-01-28T18:30:43.417Z,1010.31
2017-01-28T18:31:24.013Z,1010.32
2017-01-28T18:32:04.555Z,1010.3
2017-01-28T18:32:45.056Z,1010.34
2017-01-28T18:33:25.618Z,1010.3
2017-01-28T18:34:06.131Z,1010.31
2017-01-28T18:34:46.746Z,1010.31
2017-01-28T18:35:27.270Z,1010.3
2017-01-28T18:36:07.844Z,1010.32
2017-01-28T18:36:48.381Z,1010.32
2017-01-28T18:37:28.949Z,1010.35
2017-01-28T18:38:09.483Z,1010.35
2017-01-28T18:38:49.990Z,1010.33
2017-01-28T18:39:30.564Z,1010.32
2017-01-28T18:40:11.074Z,1010.34
2017-01-28T18:40:51.588Z,1010.34
2017-01-28T18:41:32.139Z,1010.34
2017-01-28T18:42:12.664Z,1010.35
2017-01-28T18:42:53.247Z,1010.37
2017-01-28T18:43:33.800Z,1010.31
2017-01-28T18:44:14.327Z,1010.34
2017-01-28T18:44:54.899Z,1010.37
2017-01-28T18:45:35.459Z,1010.37
2017-01-28T18:46:15.989Z,1010.37
2017-01-28T18:46:56.578Z,1010.4
2017-01-28T18:47:37.103Z,1010.37
2017-01-28T18:48:17.668Z,1010.38
2017-01-28T18:48:58.217Z,1010.38
2017-01-28T18:49:38.730Z,1010.42
2017-01-28T18:50:19.278Z,1010.39
2017-01-28T18:50:59.827Z,1010.4
2017-01-28T18:51:40.350Z,1010.43
2017-01-28T18:52:20.900Z,1010.41
2017-01-28T18:53:01.432Z,1010.38
2017-01-28T18:53:42.009Z,1010.39
2017-01-28T18:54:22.543Z,1010.41
2017-01-28T18:55:03.077Z,1010.39
2017-01-28T18:55:43.631Z,1010.41
2017-01-28T18:56:24.166Z,1010.42
2017-01-28T18:57:04.760Z,1010.42
2017-01-28T18:57:45.293Z,1010.4
2017-01-28T18:58:25.835Z,1010.44
2017-01-28T18:59:06.372Z,1010.39
2017-01-28T18:59:46.914Z,1010.45
2017-01-28T19:00:27.467Z,1010.46
2017-01-28T19:01:08.015Z,1010.46
2017-01-28T19:01:48.546Z,1010.48
2017-01-28T19:02:29.129Z,1010.5
2017-01-28T19:03:09.623Z,1010.51
2017-01-28T19:03:50.163Z,1010.53
2017-01-28T19:04:30.703Z,1010.55
2017-01-28T19:05:11.260Z,1010.57
2017-01-28T19:05:51.816Z,1010.54
2017-01-28T19:06:32.346Z,1010.56
2017-01-28T19:07:12.889Z,1010.59
2017-01-28T19:07:53.442Z,1010.58
2017-01-28T19:08:34.006Z,1010.54
2017-01-28T19:09:14.525Z,1010.56
2017-01-28T19:09:55.092Z,1010.57
2017-01-28T19:10:35.678Z,1010.58
2017-01-28T19:11:16.215Z,1010.62
2017-01-28T19:11:56.735Z,1010.6
2017-01-28T19:12:37.349Z,1010.6
2017-01-28T19:13:17.933Z,1010.59
2017-01-28T19:13:58.695Z,1010.57
2017-01-28T19:14:39.432Z,1010.59
2017-01-28T19:15:20.184Z,1010.61
2017-01-28T19:16:00.734Z,1010.65
2017-01-28T19:16:41.303Z,1010.62
2017-01-28T19:17:21.828Z,1010.66
2017-01-28T19:18:02.380Z,1010.61
2017-01-28T19:18:42.938Z,1010.7
2017-01-28T19:19:23.435Z,1010.65
2017-01-28T19:20:03.961Z,1010.66
2017-01-28T19:20:44.508Z,1010.69
2017-01-28T19:21:25.046Z,1010.68
2017-01-28T19:22:05.592Z,1010.7
2017-01-28T19:22:46.156Z,1010.73
2017-01-28T19:23:26.742Z,1010.67
2017-01-28T19:24:07.309Z,1010.72
2017-01-28T19:24:47.848Z,1010.76
2017-01-28T19:25:28.399Z,1010.73
2017-01-28T19:26:08.968Z,1010.75
2017-01-28T19:26:49.495Z,1010.72
2017-01-28T19:27:30.026Z,1010.78
2017-01-28T19:28:10.561Z,1010.77
2017-01-28T19:28:51.097Z,1010.76
2017-01-28T19:29:31.623Z,1010.74
2017-01-28T19:30:12.155Z,1010.74
2017-01-28T19:30:52.684Z,1010.79
2017-01-28T19:31:33.207Z,1010.74
2017-01-28T19:32:13.760Z,1010.75
2017-01-28T19:32:54.286Z,1010.73
2017-01-28T19:33:34.822Z,1010.73
2017-01-28T19:34:15.384Z,1010.78
2017-01-28T19:34:55.900Z,1010.75
2017-01-28T19:35:36.446Z,1010.73
2017-01-28T19:36:16.991Z,1010.68
2017-01-28T19:36:57.509Z,1010.65
2017-01-28T19:37:38.073Z,1010.72
2017-01-28T19:38:18.569Z,1010.68
2017-01-28T19:38:59.139Z,1010.67
2017-01-28T19:39:39.654Z,1010.67
2017-01-28T19:40:20.192Z,1010.69
2017-01-28T19:41:00.773Z,1010.69
2017-01-28T19:41:41.289Z,1010.72
2017-01-28T19:42:21.827Z,1010.7
2017-01-28T19:43:02.385Z,1010.71
2017-01-28T19:43:42.949Z,1010.66
2017-01-28T19:44:23.460Z,1010.68
2017-01-28T19:45:03.994Z,1010.68
2017-01-28T19:45:44.532Z,1010.68
2017-01-28T19:46:25.097Z,1010.71
2017-01-28T19:47:05.611Z,1010.68
2017-01-28T19:47:46.136Z,1010.7
2017-01-28T19:48:26.710Z,1010.71
2017-01-28T19:49:07.222Z,1010.69
2017-01-28T19:49:47.795Z,1010.7
2017-01-28T19:50:28.346Z,1010.72
2017-01-28T19:51:08.880Z,1010.74
2017-01-28T19:51:49.534Z,1010.74
2017-01-28T19:52:30.164Z,1010.68
2017-01-28T19:53:10.754Z,1010.73
2017-01-28T19:53:51.307Z,1010.71
2017-01-28T19:54:31.909Z,1010.66
2017-01-28T19:55:12.469Z,1010.72
2017-01-28T19:55:53.009Z,1010.73
2017-01-28T19:56:33.587Z,1010.73
2017-01-28T19:57:14.117Z,1010.72
2017-01-28T19:57:54.653Z,1010.7
2017-01-28T19:58:35.171Z,1010.7
2017-01-28T19:59:15.730Z,1010.71
2017-01-28T19:59:56.280Z,1010.73
2017-01-28T20:00:36.827Z,1010.73
2017-01-28T20:01:17.394Z,1010.75
2017-01-28T20:01:58.005Z,1010.75
2017-01-28T20:02:38.520Z,1010.76
2017-01-28T20:03:19.058Z,1010.72
2017-01-28T20:03:59.812Z,1010.78
2017-01-28T20:04:40.362Z,1010.72
2017-01-28T20:05:20.981Z,1010.74
2017-01-28T20:06:01.509Z,1010.75
2017-01-28T20:06:42.032Z,1010.78
2017-01-28T20:07:22.547Z,1010.79
2017-01-28T20:08:03.116Z,1010.78
2017-01-28T20:08:43.634Z,1010.76
2017-01-28T20:09:24.164Z,1010.73
2017-01-28T20:10:04.728Z,1010.74
2017-01-28T20:10:45.334Z,1010.74
2017-01-28T20:11:25.883Z,1010.79
2017-01-28T20:12:06.415Z,1010.78
2017-01-28T20:12:46.932Z,1010.78
2017-01-28T20:13:27.440Z,1010.74
2017-01-28T20:14:07.971Z,1010.8
2017-01-28T20:14:48.496Z,1010.82
2017-01-28T20:15:29.014Z,1010.81
2017-01-28T20:16:09.545Z,1010.84
2017-01-28T20:16:50.099Z,1010.78
2017-01-28T20:17:30.631Z,1010.83
2017-01-28T20:18:11.155Z,1010.84
2017-01-28T20:18:51.681Z,1010.77
2017-01-28T20:19:32.230Z,1010.82
2017-01-28T20:20:12.759Z,1010.79
2017-01-28T20:20:53.313Z,1010.78
2017-01-28T20:21:34.483Z,1010.8
2017-01-28T20:22:14.373Z,1010.81
2017-01-28T20:22:54.931Z,1010.84
2017-01-28T20:23:35.477Z,1010.85
2017-01-28T20:24:15.981Z,1010.86
2017-01-28T20:24:56.521Z,1010.88
2017-01-28T20:25:37.061Z,1010.88
2017-01-28T20:26:17.625Z,1010.87
2017-01-28T20:26:58.161Z,1010.83
2017-01-28T20:27:38.717Z,1010.86
2017-01-28T20:28:19.228Z,1010.88
2017-01-28T20:28:59.754Z,1010.89
2017-01-28T20:29:40.285Z,1010.88
2017-01-28T20:30:20.818Z,1010.91
2017-01-28T20:31:01.351Z,1010.92
2017-01-28T20:31:41.879Z,1010.91
2017-01-28T20:32:22.424Z,1010.87
2017-01-28T20:33:02.935Z,1010.9
2017-01-28T20:33:43.461Z,1010.88
2017-01-28T20:34:23.992Z,1010.88
2017-01-28T20:35:04.554Z,1010.85
2017-01-28T20:35:45.052Z,1010.88
2017-01-28T20:36:25.582Z,1010.88
2017-01-28T20:37:06.129Z,1010.89
2017-01-28T20:37:46.665Z,1010.89
2017-01-28T20:38:27.190Z,1010.9
2017-01-28T20:39:07.754Z,1010.92
2017-01-28T20:39:48.294Z,1010.88
2017-01-28T20:40:28.822Z,1010.91
2017-01-28T20:41:09.336Z,1010.93
2017-01-28T20:41:49.862Z,1010.91
2017-01-28T20:42:30.398Z,1010.9
2017-01-28T20:43:10.952Z,1010.92
2017-01-28T20:43:51.484Z,1010.95
2017-01-28T20:44:32.978Z,1010.97
2017-01-28T20:45:12.559Z,1010.96
2017-01-28T20:45:53.147Z,1011
2017-01-28T20:46:33.691Z,1010.97
2017-01-28T20:47:14.330Z,1010.97
2017-01-28T20:47:54.855Z,1010.99
2017-01-28T20:48:35.385Z,1010.99
2017-01-28T20:49:15.922Z,1011.05
2017-01-28T20:49:56.486Z,1011.05
2017-01-28T20:50:37.018Z,1011.03
2017-01-28T20:51:17.535Z,1011.04
2017-01-28T20:51:58.066Z,1011.01
2017-01-28T20:52:38.583Z,1011.01
2017-01-28T20:53:19.105Z,1011
2017-01-28T20:53:59.702Z,1011
2017-01-28T20:54:40.337Z,1011.04
2017-01-28T20:55:20.875Z,1011.01
2017-01-28T20:56:01.419Z,1011.08
2017-01-28T20:56:41.990Z,1011.09
2017-01-28T20:57:22.541Z,1011.09
2017-01-28T20:58:03.073Z,1011.09
2017-01-28T20:58:43.689Z,1011.11
2017-01-28T20:59:24.244Z,1011.09
2017-01-28T21:00:04.967Z,1011.06
2017-01-28T21:00:45.487Z,1011.04
2017-01-28T21:01:26.030Z,1011.06
2017-01-28T21:02:06.593Z,1011.02
2017-01-28T21:02:47.107Z,1011.05
2017-01-28T21:03:27.660Z,1011.02
2017-01-28T21:04:08.244Z,1011.02
2017-01-28T21:04:48.883Z,1010.98
2017-01-28T21:05:29.480Z,1011.03
2017-01-28T21:06:10.006Z,1010.98
2017-01-28T21:06:50.572Z,1010.95
2017-01-28T21:07:31.178Z,1010.98
2017-01-28T21:08:11.742Z,1010.97
2017-01-28T21:08:52.338Z,1010.94
2017-01-28T21:09:32.940Z,1010.95
2017-01-28T21:10:13.507Z,1010.94
2017-01-28T21:10:54.178Z,1010.96
2017-01-28T21:11:34.695Z,1010.91
2017-01-28T21:12:15.247Z,1010.93
2017-01-28T21:12:56.075Z,1010.94
2017-01-28T21:13:37.382Z,1010.96
2017-01-28T21:14:17.990Z,1010.99
2017-01-28T21:14:58.673Z,1010.96
2017-01-28T21:15:39.240Z,1010.97
2017-01-28T21:16:19.951Z,1011.02
2017-01-28T21:17:00.481Z,1011
2017-01-28T21:17:41.066Z,1010.95
2017-01-28T21:18:21.605Z,1011.03
2017-01-28T21:19:02.240Z,1011.01
2017-01-28T21:19:42.963Z,1011.02
2017-01-28T21:20:23.752Z,1011
2017-01-28T21:21:04.315Z,1011.01
2017-01-28T21:21:44.870Z,1011.01
2017-01-28T21:22:25.408Z,1011.03
2017-01-28T21:23:06.021Z,1011.02
2017-01-28T21:23:46.721Z,1011.04
2017-01-28T21:24:28.230Z,1011.02
2017-01-28T21:25:08.833Z,1011.07
2017-01-28T21:25:49.405Z,1011.04
2017-01-28T21:26:30.288Z,1011.09
2017-01-28T21:27:10.833Z,1011.11
2017-01-28T21:27:51.454Z,1011.15
2017-01-28T21:28:32.292Z,1011.17
2017-01-28T21:29:12.873Z,1011.13
2017-01-28T21:29:53.492Z,1011.15
2017-01-28T21:30:34.026Z,1011.14
2017-01-28T21:31:14.596Z,1011.11
2017-01-28T21:31:55.139Z,1011.1
2017-01-28T21:32:35.683Z,1011.14
2017-01-28T21:33:16.436Z,1011.16
2017-01-28T21:33:56.970Z,1011.16
2017-01-28T21:34:37.527Z,1011.12
2017-01-28T21:35:18.074Z,1011.15
2017-01-28T21:35:58.631Z,1011.1
2017-01-28T21:36:39.182Z,1011.09
2017-01-28T21:37:19.788Z,1011.11
2017-01-28T21:38:00.378Z,1011.04
2017-01-28T21:38:40.934Z,1011.04
2017-01-28T21:39:21.602Z,1011.03
2017-01-28T21:40:02.146Z,1011.05
2017-01-28T21:40:42.723Z,1011.02
2017-01-28T21:41:23.291Z,1011.06
2017-01-28T21:42:03.833Z,1011.05
2017-01-28T21:42:44.353Z,1011.04
2017-01-28T21:43:24.913Z,1011.03
2017-01-28T21:44:05.450Z,1011.01
2017-01-28T21:44:45.978Z,1011
2017-01-28T21:45:26.493Z,1011.01
2017-01-28T21:46:07.032Z,1010.98
2017-01-28T21:46:47.563Z,1010.96
2017-01-28T21:47:28.122Z,1010.94
2017-01-28T21:48:08.632Z,1011
2017-01-28T21:48:49.183Z,1010.93
2017-01-28T21:49:29.715Z,1010.93
2017-01-28T21:50:10.238Z,1010.94
2017-01-28T21:50:50.769Z,1010.98
2017-01-28T21:51:31.291Z,1010.94
2017-01-28T21:52:11.827Z,1010.87
2017-01-28T21:52:52.383Z,1010.89
2017-01-28T21:53:32.888Z,1010.92
2017-01-28T21:54:13.423Z,1010.92
2017-01-28T21:54:53.983Z,1010.99
2017-01-28T21:55:34.522Z,1011.02
2017-01-28T21:56:15.043Z,1011.07
2017-01-28T21:56:55.617Z,1011.11
2017-01-28T21:57:36.144Z,1011.16
2017-01-28T21:58:16.750Z,1011.17
2017-01-28T21:58:57.303Z,1011.16
2017-01-28T21:59:37.842Z,1011.11
2017-01-28T22:00:18.425Z,1011.16
2017-01-28T22:00:58.988Z,1011.14
2017-01-28T22:01:39.545Z,1011.16
2017-01-28T22:02:20.111Z,1011.17
2017-01-28T22:03:00.653Z,1011.21
2017-01-28T22:03:41.989Z,1011.23
2017-01-28T22:04:21.688Z,1011.24
2017-01-28T22:05:02.213Z,1011.23
2017-01-28T22:05:42.756Z,1011.2
2017-01-28T22:06:23.300Z,1011.24
2017-01-28T22:07:03.927Z,1011.25
2017-01-28T22:07:44.478Z,1011.18
2017-01-28T22:08:25.017Z,1011.23
2017-01-28T22:09:05.573Z,1011.26
2017-01-28T22:09:46.104Z,1011.19
2017-01-28T22:10:26.682Z,1011.21
2017-01-28T22:11:07.228Z,1011.16
2017-01-28T22:11:47.746Z,1011.2
2017-01-28T22:12:28.265Z,1011.25
2017-01-28T22:13:08.778Z,1011.14
2017-01-28T22:13:49.322Z,1011.16
2017-01-28T22:14:29.865Z,1011.22
2017-01-28T22:15:10.390Z,1011.19
2017-01-28T22:15:50.937Z,1011.25
2017-01-28T22:16:31.501Z,1011.2
2017-01-28T22:17:12.043Z,1011.18
2017-01-28T22:17:52.606Z,1011.22
2017-01-28T22:18:33.131Z,1011.27
2017-01-28T22:19:13.668Z,1011.27
2017-01-28T22:19:54.211Z,1011.28
2017-01-28T22:20:34.729Z,1011.22
2017-01-28T22:21:15.269Z,1011.23
2017-01-28T22:21:55.801Z,1011.22
2017-01-28T22:22:36.332Z,1011.23
2017-01-28T22:23:16.855Z,1011.21
2017-01-28T22:23:57.377Z,1011.2
2017-01-28T22:24:37.909Z,1011.21
2017-01-28T22:25:18.433Z,1011.26
2017-01-28T22:25:58.991Z,1011.25
2017-01-28T22:26:39.531Z,1011.22
2017-01-28T22:27:20.088Z,1011.23
2017-01-28T22:28:00.645Z,1011.23
2017-01-28T22:28:41.174Z,1011.24
2017-01-28T22:29:21.708Z,1011.22
2017-01-28T22:30:02.254Z,1011.28
2017-01-28T22:30:42.799Z,1011.29
2017-01-28T22:31:23.323Z,1011.31
2017-01-28T22:32:03.857Z,1011.28
2017-01-28T22:32:44.391Z,1011.31
2017-01-28T22:33:24.917Z,1011.29
2017-01-28T22:34:05.512Z,1011.34
2017-01-28T22:34:46.042Z,1011.34
2017-01-28T22:35:26.573Z,1011.36
2017-01-28T22:36:07.113Z,1011.33
2017-01-28T22:36:47.672Z,1011.33
2017-01-28T22:37:28.235Z,1011.35
2017-01-28T22:38:08.764Z,1011.37
2017-01-28T22:38:50.069Z,1011.39
2017-01-28T22:39:30.600Z,1011.35
2017-01-28T22:40:11.131Z,1011.41
2017-01-28T22:40:51.674Z,1011.39
2017-01-28T22:41:32.192Z,1011.4
2017-01-28T22:42:12.781Z,1011.38
2017-01-28T22:42:53.295Z,1011.38
2017-01-28T22:43:33.811Z,1011.36
2017-01-28T22:44:14.363Z,1011.38
2017-01-28T22:44:54.916Z,1011.38
2017-01-28T22:45:35.441Z,1011.44
2017-01-28T22:46:16.018Z,1011.43
2017-01-28T22:46:56.572Z,1011.44
2017-01-28T22:47:37.076Z,1011.46
2017-01-28T22:48:17.644Z,1011.48
2017-01-28T22:48:58.218Z,1011.42
2017-01-28T22:49:38.745Z,1011.44
2017-01-28T22:50:19.281Z,1011.43
2017-01-28T22:50:59.819Z,1011.43
2017-01-28T22:51:40.354Z,1011.41
2017-01-28T22:52:20.873Z,1011.43
2017-01-28T22:53:01.418Z,1011.46
2017-01-28T22:53:41.947Z,1011.48
2017-01-28T22:54:22.486Z,1011.47
2017-01-28T22:55:03.058Z,1011.47
2017-01-28T22:55:43.634Z,1011.51
2017-01-28T22:56:24.179Z,1011.53
2017-01-28T22:57:04.684Z,1011.53
2017-01-28T22:57:45.209Z,1011.54
2017-01-28T22:58:25.733Z,1011.56
2017-01-28T22:59:06.266Z,1011.55
2017-01-28T22:59:46.796Z,1011.6
2017-01-28T23:00:27.327Z,1011.63
2017-01-28T23:01:07.845Z,1011.61
2017-01-28T23:01:48.390Z,1011.57
2017-01-28T23:02:28.910Z,1011.55
2017-01-28T23:03:09.461Z,1011.59
2017-01-28T23:03:49.984Z,1011.61
2017-01-28T23:04:30.561Z,1011.62
2017-01-28T23:05:11.094Z,1011.63
2017-01-28T23:05:51.605Z,1011.64
2017-01-28T23:06:32.113Z,1011.62
2017-01-28T23:07:12.629Z,1011.64
2017-01-28T23:07:53.157Z,1011.67
2017-01-28T23:08:33.704Z,1011.67
2017-01-28T23:09:14.231Z,1011.67
2017-01-28T23:09:54.835Z,1011.67
2017-01-28T23:10:35.386Z,1011.65
2017-01-28T23:11:15.903Z,1011.68
2017-01-28T23:11:56.473Z,1011.71
2017-01-28T23:12:37.011Z,1011.72
2017-01-28T23:13:17.548Z,1011.72
2017-01-28T23:13:58.071Z,1011.73
2017-01-28T23:14:38.604Z,1011.71
2017-01-28T23:15:19.191Z,1011.78
2017-01-28T23:15:59.718Z,1011.76
2017-01-28T23:16:40.276Z,1011.71
2017-01-28T23:17:20.825Z,1011.74
2017-01-28T23:18:01.343Z,1011.75
2017-01-28T23:18:41.888Z,1011.75
2017-01-28T23:19:22.404Z,1011.74
2017-01-28T23:20:02.970Z,1011.74
2017-01-28T23:20:43.504Z,1011.71
2017-01-28T23:21:24.017Z,1011.76
2017-01-28T23:22:04.584Z,1011.75
2017-01-28T23:22:45.106Z,1011.75
2017-01-28T23:23:25.640Z,1011.79
2017-01-28T23:24:06.173Z,1011.8
2017-01-28T23:24:46.683Z,1011.8
2017-01-28T23:25:27.213Z,1011.82
2017-01-28T23:26:07.740Z,1011.77
2017-01-28T23:26:48.252Z,1011.84
2017-01-28T23:27:28.819Z,1011.8
2017-01-28T23:28:09.363Z,1011.82
2017-01-28T23:28:49.884Z,1011.8
2017-01-28T23:29:30.418Z,1011.84
2017-01-28T23:30:10.952Z,1011.85
2017-01-28T23:30:51.491Z,1011.86
2017-01-28T23:31:32.026Z,1011.83
2017-01-28T23:32:12.641Z,1011.87
2017-01-28T23:32:53.168Z,1011.87
2017-01-28T23:33:33.682Z,1011.88
2017-01-28T23:34:14.231Z,1011.91
2017-01-28T23:34:54.768Z,1011.87
2017-01-28T23:35:35.315Z,1011.89
2017-01-28T23:36:15.834Z,1011.96
2017-01-28T23:36:56.393Z,1011.9
2017-01-28T23:37:36.929Z,1011.93
2017-01-28T23:38:17.440Z,1011.87
2017-01-28T23:38:57.985Z,1011.86
2017-01-28T23:39:38.508Z,1011.82
2017-01-28T23:40:19.048Z,1011.91
2017-01-28T23:40:59.587Z,1011.84
2017-01-28T23:41:40.213Z,1011.83
2017-01-28T23:42:20.811Z,1011.82
2017-01-28T23:43:01.338Z,1011.84
2017-01-28T23:43:41.857Z,1011.84
2017-01-28T23:44:22.420Z,1011.86
2017-01-28T23:45:02.938Z,1011.79
2017-01-28T23:45:43.488Z,1011.86
2017-01-28T23:46:24.031Z,1011.84
2017-01-28T23:47:04.577Z,1011.86
2017-01-28T23:47:45.120Z,1011.84
2017-01-28T23:48:25.650Z,1011.81
2017-01-28T23:49:06.243Z,1011.84
2017-01-28T23:49:46.767Z,1011.81
2017-01-28T23:50:27.303Z,1011.79
2017-01-28T23:51:07.826Z,1011.8
2017-01-28T23:51:48.352Z,1011.81
2017-01-28T23:52:28.881Z,1011.78
2017-01-28T23:53:09.411Z,1011.76
2017-01-28T23:53:49.953Z,1011.8
2017-01-28T23:54:30.475Z,1011.75
2017-01-28T23:55:11.018Z,1011.75
2017-01-28T23:55:51.569Z,1011.75
2017-01-28T23:56:32.101Z,1011.76
2017-01-28T23:57:12.613Z,1011.73
2017-01-28T23:57:53.160Z,1011.78
2017-01-28T23:58:33.708Z,1011.76
2017-01-28T23:59:14.237Z,1011.73
2017-01-28T23:59:54.810Z,1011.66
